sensor_id;sensor_type;location;lat;lon;timestamp;pressure;altitude;pressure_sealevel;temperature;humidity
81162;BME280;70638;-33.792;151.032;2023-09-19T00:02:31;100924.09;;;28.49;25.82
81162;BME280;70638;-33.792;151.032;2023-09-19T00:05:00;100917.89;;;28.66;24.24
81162;BME280;70638;-33.792;151.032;2023-09-19T00:07:31;100916.84;;;28.68;24.02
81162;BME280;70638;-33.792;151.032;2023-09-19T00:10:01;100906.11;;;28.88;24.99
81162;BME280;70638;-33.792;151.032;2023-09-19T00:12:31;100900.14;;;28.91;23.71
81162;BME280;70638;-33.792;151.032;2023-09-19T00:15:07;100896.59;;;28.95;24.01
81162;BME280;70638;-33.792;151.032;2023-09-19T00:17:34;100894.94;;;29.02;23.92
81162;BME280;70638;-33.792;151.032;2023-09-19T00:20:12;100889.14;;;29.00;23.29
81162;BME280;70638;-33.792;151.032;2023-09-19T00:22:34;100885.28;;;29.18;22.97
81162;BME280;70638;-33.792;151.032;2023-09-19T00:25:05;100880.95;;;29.19;23.34
81162;BME280;70638;-33.792;151.032;2023-09-19T00:27:40;100880.58;;;29.27;22.57
81162;BME280;70638;-33.792;151.032;2023-09-19T00:30:07;100876.89;;;29.31;23.21
81162;BME280;70638;-33.792;151.032;2023-09-19T00:32:36;100875.61;;;29.39;23.97
81162;BME280;70638;-33.792;151.032;2023-09-19T00:35:07;100868.38;;;29.69;23.70
81162;BME280;70638;-33.792;151.032;2023-09-19T00:37:38;100865.34;;;29.72;22.47
81162;BME280;70638;-33.792;151.032;2023-09-19T00:40:15;100860.89;;;29.70;22.60
81162;BME280;70638;-33.792;151.032;2023-09-19T00:42:40;100859.05;;;29.82;22.33
81162;BME280;70638;-33.792;151.032;2023-09-19T00:45:11;100850.51;;;29.79;22.72
81162;BME280;70638;-33.792;151.032;2023-09-19T00:47:44;100846.49;;;29.82;22.46
81162;BME280;70638;-33.792;151.032;2023-09-19T00:50:21;100837.77;;;29.92;22.17
81162;BME280;70638;-33.792;151.032;2023-09-19T00:52:42;100837.25;;;30.02;22.32
81162;BME280;70638;-33.792;151.032;2023-09-19T00:55:11;100830.45;;;29.95;22.21
81162;BME280;70638;-33.792;151.032;2023-09-19T00:57:41;100816.06;;;30.20;21.54
81162;BME280;70638;-33.792;151.032;2023-09-19T01:00:17;100817.97;;;30.15;21.35
81162;BME280;70638;-33.792;151.032;2023-09-19T01:02:42;100815.92;;;30.19;22.94
81162;BME280;70638;-33.792;151.032;2023-09-19T01:05:13;100812.16;;;30.33;22.33
81162;BME280;70638;-33.792;151.032;2023-09-19T01:07:46;100805.41;;;30.42;22.52
81162;BME280;70638;-33.792;151.032;2023-09-19T01:10:19;100796.89;;;30.30;22.55
81162;BME280;70638;-33.792;151.032;2023-09-19T01:12:54;100792.27;;;30.40;22.93
81162;BME280;70638;-33.792;151.032;2023-09-19T01:15:30;100786.25;;;30.43;21.48
81162;BME280;70638;-33.792;151.032;2023-09-19T01:17:49;100782.20;;;30.54;21.93
81162;BME280;70638;-33.792;151.032;2023-09-19T01:20:21;100782.16;;;30.87;22.38
81162;BME280;70638;-33.792;151.032;2023-09-19T01:28:14;100762.52;;;30.76;21.01
81162;BME280;70638;-33.792;151.032;2023-09-19T01:30:21;100753.80;;;31.13;20.20
81162;BME280;70638;-33.792;151.032;2023-09-19T01:32:51;100751.20;;;31.04;20.97
81162;BME280;70638;-33.792;151.032;2023-09-19T01:35:17;100739.27;;;31.07;20.11
81162;BME280;70638;-33.792;151.032;2023-09-19T01:37:48;100728.67;;;31.09;21.03
81162;BME280;70638;-33.792;151.032;2023-09-19T01:40:22;100727.20;;;31.33;20.61
81162;BME280;70638;-33.792;151.032;2023-09-19T01:43:27;100727.20;;;31.33;20.88
81162;BME280;70638;-33.792;151.032;2023-09-19T01:45:37;100716.31;;;31.48;20.75
81162;BME280;70638;-33.792;151.032;2023-09-19T01:47:55;100716.42;;;31.53;20.73
81162;BME280;70638;-33.792;151.032;2023-09-19T01:50:32;100710.02;;;31.67;19.99
81162;BME280;70638;-33.792;151.032;2023-09-19T01:53:02;100704.84;;;31.74;19.77
81162;BME280;70638;-33.792;151.032;2023-09-19T01:55:22;100710.62;;;31.84;19.62
81162;BME280;70638;-33.792;151.032;2023-09-19T01:58:05;100696.83;;;31.87;19.28
81162;BME280;70638;-33.792;151.032;2023-09-19T02:00:26;100695.22;;;31.94;18.26
81162;BME280;70638;-33.792;151.032;2023-09-19T02:02:55;100685.22;;;32.03;18.41
81162;BME280;70638;-33.792;151.032;2023-09-19T02:05:25;100676.91;;;31.93;18.09
81162;BME280;70638;-33.792;151.032;2023-09-19T02:07:58;100680.54;;;31.94;19.29
81162;BME280;70638;-33.792;151.032;2023-09-19T02:10:25;100663.56;;;32.05;17.02
81162;BME280;70638;-33.792;151.032;2023-09-19T02:12:55;100658.94;;;32.13;19.28
81162;BME280;70638;-33.792;151.032;2023-09-19T02:15:26;100658.44;;;32.15;17.72
81162;BME280;70638;-33.792;151.032;2023-09-19T02:17:59;100649.80;;;32.16;17.58
81162;BME280;70638;-33.792;151.032;2023-09-19T02:20:29;100644.56;;;32.11;18.92
81162;BME280;70638;-33.792;151.032;2023-09-19T02:22:58;100645.24;;;32.03;17.08
81162;BME280;70638;-33.792;151.032;2023-09-19T02:25:30;100644.58;;;32.04;17.53
81162;BME280;70638;-33.792;151.032;2023-09-19T02:28:01;100631.46;;;31.91;17.48
81162;BME280;70638;-33.792;151.032;2023-09-19T02:30:29;100632.23;;;32.03;17.70
81162;BME280;70638;-33.792;151.032;2023-09-19T02:33:00;100627.89;;;32.46;16.86
81162;BME280;70638;-33.792;151.032;2023-09-19T02:35:31;100621.38;;;32.35;16.05
81162;BME280;70638;-33.792;151.032;2023-09-19T02:38:01;100621.29;;;32.17;17.09
81162;BME280;70638;-33.792;151.032;2023-09-19T02:40:32;100619.80;;;32.20;17.14
81162;BME280;70638;-33.792;151.032;2023-09-19T02:43:03;100611.88;;;32.18;17.81
81162;BME280;70638;-33.792;151.032;2023-09-19T02:45:33;100609.44;;;32.16;18.04
81162;BME280;70638;-33.792;151.032;2023-09-19T02:48:05;100603.53;;;32.23;18.08
81162;BME280;70638;-33.792;151.032;2023-09-19T02:50:40;100602.33;;;32.25;18.01
81162;BME280;70638;-33.792;151.032;2023-09-19T02:53:04;100593.06;;;32.44;17.42
81162;BME280;70638;-33.792;151.032;2023-09-19T02:55:35;100589.92;;;32.37;16.70
81162;BME280;70638;-33.792;151.032;2023-09-19T02:58:10;100581.00;;;32.11;18.28
81162;BME280;70638;-33.792;151.032;2023-09-19T03:00:38;100576.62;;;32.22;18.21
81162;BME280;70638;-33.792;151.032;2023-09-19T03:03:08;100568.84;;;32.28;17.84
81162;BME280;70638;-33.792;151.032;2023-09-19T03:05:37;100569.52;;;32.53;18.48
81162;BME280;70638;-33.792;151.032;2023-09-19T03:08:09;100561.89;;;32.74;17.10
81162;BME280;70638;-33.792;151.032;2023-09-19T03:10:48;100560.72;;;32.71;17.26
81162;BME280;70638;-33.792;151.032;2023-09-19T03:13:12;100557.55;;;32.61;17.93
81162;BME280;70638;-33.792;151.032;2023-09-19T03:15:43;100555.88;;;32.57;17.56
81162;BME280;70638;-33.792;151.032;2023-09-19T03:18:10;100552.05;;;32.45;17.20
81162;BME280;70638;-33.792;151.032;2023-09-19T03:20:41;100547.33;;;32.31;17.34
81162;BME280;70638;-33.792;151.032;2023-09-19T03:23:11;100548.94;;;32.30;18.01
81162;BME280;70638;-33.792;151.032;2023-09-19T03:25:42;100540.48;;;32.38;17.67
81162;BME280;70638;-33.792;151.032;2023-09-19T03:28:13;100536.62;;;32.27;17.91
81162;BME280;70638;-33.792;151.032;2023-09-19T03:30:43;100522.12;;;32.19;18.56
81162;BME280;70638;-33.792;151.032;2023-09-19T03:33:16;100520.19;;;32.18;17.62
81162;BME280;70638;-33.792;151.032;2023-09-19T03:35:51;100521.75;;;32.31;17.39
81162;BME280;70638;-33.792;151.032;2023-09-19T03:38:14;100515.00;;;32.36;17.56
81162;BME280;70638;-33.792;151.032;2023-09-19T03:40:44;100507.30;;;32.46;17.32
81162;BME280;70638;-33.792;151.032;2023-09-19T03:43:15;100485.34;;;32.46;17.01
81162;BME280;70638;-33.792;151.032;2023-09-19T03:45:49;100489.25;;;32.56;17.97
81162;BME280;70638;-33.792;151.032;2023-09-19T03:48:15;100491.23;;;32.56;17.05
81162;BME280;70638;-33.792;151.032;2023-09-19T03:50:47;100485.70;;;32.56;17.22
81162;BME280;70638;-33.792;151.032;2023-09-19T03:53:21;100481.17;;;32.45;17.44
81162;BME280;70638;-33.792;151.032;2023-09-19T03:55:46;100478.96;;;32.46;17.02
81162;BME280;70638;-33.792;151.032;2023-09-19T03:58:17;100471.64;;;32.49;16.79
81162;BME280;70638;-33.792;151.032;2023-09-19T04:00:48;100472.88;;;32.55;17.11
81162;BME280;70638;-33.792;151.032;2023-09-19T04:03:23;100464.92;;;32.40;17.38
81162;BME280;70638;-33.792;151.032;2023-09-19T04:05:50;100461.55;;;32.39;17.49
81162;BME280;70638;-33.792;151.032;2023-09-19T04:08:19;100454.30;;;32.38;17.71
81162;BME280;70638;-33.792;151.032;2023-09-19T04:10:50;100446.64;;;32.40;17.38
81162;BME280;70638;-33.792;151.032;2023-09-19T04:13:20;100441.27;;;32.41;17.62
81162;BME280;70638;-33.792;151.032;2023-09-19T04:15:51;100437.90;;;32.34;17.91
81162;BME280;70638;-33.792;151.032;2023-09-19T04:18:24;100427.57;;;32.27;17.37
81162;BME280;70638;-33.792;151.032;2023-09-19T04:20:52;100435.38;;;32.20;18.51
81162;BME280;70638;-33.792;151.032;2023-09-19T04:23:25;100436.62;;;32.38;17.49
81162;BME280;70638;-33.792;151.032;2023-09-19T04:25:53;100421.47;;;32.47;17.14
81162;BME280;70638;-33.792;151.032;2023-09-19T04:28:24;100426.39;;;32.42;17.32
81162;BME280;70638;-33.792;151.032;2023-09-19T04:30:54;100416.98;;;32.39;17.46
81162;BME280;70638;-33.792;151.032;2023-09-19T04:33:25;100415.85;;;32.48;17.38
81162;BME280;70638;-33.792;151.032;2023-09-19T04:36:02;100409.31;;;32.41;17.02
81162;BME280;70638;-33.792;151.032;2023-09-19T04:38:26;100400.51;;;32.30;17.29
81162;BME280;70638;-33.792;151.032;2023-09-19T04:41:00;100397.70;;;32.21;17.23
81162;BME280;70638;-33.792;151.032;2023-09-19T04:43:27;100401.36;;;32.18;17.86
81162;BME280;70638;-33.792;151.032;2023-09-19T04:46:36;100396.72;;;32.05;18.31
81162;BME280;70638;-33.792;151.032;2023-09-19T04:48:30;100397.30;;;32.02;17.92
81162;BME280;70638;-33.792;151.032;2023-09-19T04:51:01;100386.69;;;31.99;18.12
81162;BME280;70638;-33.792;151.032;2023-09-19T04:53:30;100383.33;;;32.07;16.83
81162;BME280;70638;-33.792;151.032;2023-09-19T04:56:05;100383.21;;;31.92;17.60
81162;BME280;70638;-33.792;151.032;2023-09-19T04:58:31;100377.58;;;31.85;18.47
81162;BME280;70638;-33.792;151.032;2023-09-19T05:01:06;100372.98;;;31.83;18.29
81162;BME280;70638;-33.792;151.032;2023-09-19T05:03:33;100374.45;;;31.94;17.46
81162;BME280;70638;-33.792;151.032;2023-09-19T05:06:03;100366.05;;;32.14;17.31
81162;BME280;70638;-33.792;151.032;2023-09-19T05:08:34;100364.87;;;32.09;16.39
81162;BME280;70638;-33.792;151.032;2023-09-19T05:11:04;100362.95;;;31.96;17.35
81162;BME280;70638;-33.792;151.032;2023-09-19T05:13:35;100369.34;;;32.03;17.72
81162;BME280;70638;-33.792;151.032;2023-09-19T05:16:05;100365.00;;;31.94;16.96
81162;BME280;70638;-33.792;151.032;2023-09-19T05:18:36;100363.95;;;31.96;16.83
81162;BME280;70638;-33.792;151.032;2023-09-19T05:21:06;100365.87;;;31.85;17.20
81162;BME280;70638;-33.792;151.032;2023-09-19T05:23:37;100360.34;;;31.75;16.10
81162;BME280;70638;-33.792;151.032;2023-09-19T05:26:08;100356.02;;;31.60;16.67
81162;BME280;70638;-33.792;151.032;2023-09-19T05:28:40;100346.67;;;31.56;16.37
81162;BME280;70638;-33.792;151.032;2023-09-19T05:31:09;100357.86;;;31.51;17.04
81162;BME280;70638;-33.792;151.032;2023-09-19T05:33:40;100354.90;;;31.61;17.72
81162;BME280;70638;-33.792;151.032;2023-09-19T05:36:15;100356.46;;;31.74;16.90
81162;BME280;70638;-33.792;151.032;2023-09-19T05:38:46;100356.03;;;31.62;15.80
81162;BME280;70638;-33.792;151.032;2023-09-19T05:41:13;100356.06;;;31.44;17.10
81162;BME280;70638;-33.792;151.032;2023-09-19T05:43:43;100356.17;;;31.41;16.12
81162;BME280;70638;-33.792;151.032;2023-09-19T05:46:12;100355.50;;;31.34;15.96
81162;BME280;70638;-33.792;151.032;2023-09-19T05:48:43;100350.95;;;31.28;15.93
81162;BME280;70638;-33.792;151.032;2023-09-19T05:51:13;100356.38;;;31.19;16.47
81162;BME280;70638;-33.792;151.032;2023-09-19T05:53:46;100350.66;;;31.12;16.51
81162;BME280;70638;-33.792;151.032;2023-09-19T05:56:15;100356.12;;;31.12;15.91
81162;BME280;70638;-33.792;151.032;2023-09-19T05:58:52;100358.64;;;31.13;15.81
81162;BME280;70638;-33.792;151.032;2023-09-19T06:01:14;100351.62;;;31.06;15.71
81162;BME280;70638;-33.792;151.032;2023-09-19T06:03:45;100349.97;;;31.08;16.06
81162;BME280;70638;-33.792;151.032;2023-09-19T06:06:16;100351.81;;;30.90;15.89
81162;BME280;70638;-33.792;151.032;2023-09-19T06:08:47;100352.67;;;30.85;16.85
81162;BME280;70638;-33.792;151.032;2023-09-19T06:11:16;100355.77;;;30.66;15.91
81162;BME280;70638;-33.792;151.032;2023-09-19T06:13:49;100351.57;;;30.52;16.13
81162;BME280;70638;-33.792;151.032;2023-09-19T06:16:16;100352.48;;;30.43;16.36
81162;BME280;70638;-33.792;151.032;2023-09-19T06:18:47;100360.33;;;30.38;17.67
81162;BME280;70638;-33.792;151.032;2023-09-19T06:21:18;100364.36;;;30.38;16.46
81162;BME280;70638;-33.792;151.032;2023-09-19T06:23:48;100366.39;;;30.40;16.47
81162;BME280;70638;-33.792;151.032;2023-09-19T06:26:19;100365.03;;;30.36;16.56
81162;BME280;70638;-33.792;151.032;2023-09-19T06:28:50;100362.74;;;30.32;16.51
81162;BME280;70638;-33.792;151.032;2023-09-19T06:31:20;100366.43;;;30.18;17.23
81162;BME280;70638;-33.792;151.032;2023-09-19T06:33:51;100364.70;;;30.13;16.91
81162;BME280;70638;-33.792;151.032;2023-09-19T06:36:22;100362.67;;;30.23;18.25
81162;BME280;70638;-33.792;151.032;2023-09-19T06:38:54;100368.51;;;30.39;16.57
81162;BME280;70638;-33.792;151.032;2023-09-19T06:41:27;100365.27;;;30.37;16.94
81162;BME280;70638;-33.792;151.032;2023-09-19T06:43:55;100373.67;;;30.05;17.55
81162;BME280;70638;-33.792;151.032;2023-09-19T06:46:37;100373.62;;;29.84;17.29
81162;BME280;70638;-33.792;151.032;2023-09-19T06:48:55;100374.47;;;29.83;17.00
81162;BME280;70638;-33.792;151.032;2023-09-19T06:51:24;100373.11;;;29.84;16.61
81162;BME280;70638;-33.792;151.032;2023-09-19T06:53:59;100380.27;;;29.73;17.93
81162;BME280;70638;-33.792;151.032;2023-09-19T06:56:27;100382.62;;;29.64;17.17
81162;BME280;70638;-33.792;151.032;2023-09-19T06:58:56;100385.26;;;29.68;16.86
81162;BME280;70638;-33.792;151.032;2023-09-19T07:01:33;100384.61;;;29.52;17.63
81162;BME280;70638;-33.792;151.032;2023-09-19T07:03:58;100388.94;;;29.43;17.79
81162;BME280;70638;-33.792;151.032;2023-09-19T07:06:28;100395.27;;;29.30;17.14
81162;BME280;70638;-33.792;151.032;2023-09-19T07:08:59;100395.61;;;29.18;17.73
81162;BME280;70638;-33.792;151.032;2023-09-19T07:11:44;100397.72;;;29.09;18.47
81162;BME280;70638;-33.792;151.032;2023-09-19T07:14:00;100400.01;;;28.90;17.75
81162;BME280;70638;-33.792;151.032;2023-09-19T07:16:32;100400.48;;;28.79;18.61
81162;BME280;70638;-33.792;151.032;2023-09-19T07:19:02;100398.36;;;28.77;18.53
81162;BME280;70638;-33.792;151.032;2023-09-19T07:21:33;100403.19;;;28.64;19.30
81162;BME280;70638;-33.792;151.032;2023-09-19T07:24:04;100402.84;;;28.50;18.65
81162;BME280;70638;-33.792;151.032;2023-09-19T07:26:34;100405.34;;;28.44;19.54
81162;BME280;70638;-33.792;151.032;2023-09-19T07:29:07;100405.22;;;28.31;19.17
81162;BME280;70638;-33.792;151.032;2023-09-19T07:31:34;100409.27;;;28.06;19.99
81162;BME280;70638;-33.792;151.032;2023-09-19T07:34:07;100411.94;;;27.92;20.37
81162;BME280;70638;-33.792;151.032;2023-09-19T07:36:36;100412.24;;;27.79;20.23
81162;BME280;70638;-33.792;151.032;2023-09-19T07:39:10;100414.88;;;27.60;21.49
81162;BME280;70638;-33.792;151.032;2023-09-19T07:41:38;100415.86;;;27.50;20.40
81162;BME280;70638;-33.792;151.032;2023-09-19T07:44:14;100419.16;;;27.33;21.83
81162;BME280;70638;-33.792;151.032;2023-09-19T07:46:39;100423.99;;;27.31;20.80
81162;BME280;70638;-33.792;151.032;2023-09-19T07:49:10;100424.41;;;27.13;22.18
81162;BME280;70638;-33.792;151.032;2023-09-19T07:51:40;100428.59;;;27.09;20.84
81162;BME280;70638;-33.792;151.032;2023-09-19T07:54:12;100437.26;;;26.93;23.01
81162;BME280;70638;-33.792;151.032;2023-09-19T07:56:41;100435.03;;;26.77;21.64
81162;BME280;70638;-33.792;151.032;2023-09-19T07:59:14;100438.91;;;26.55;23.75
81162;BME280;70638;-33.792;151.032;2023-09-19T08:01:43;100438.19;;;26.35;24.01
81162;BME280;70638;-33.792;151.032;2023-09-19T08:04:17;100439.67;;;26.08;24.51
81162;BME280;70638;-33.792;151.032;2023-09-19T08:06:43;100443.88;;;25.92;24.25
81162;BME280;70638;-33.792;151.032;2023-09-19T08:09:16;100447.06;;;25.80;25.73
81162;BME280;70638;-33.792;151.032;2023-09-19T08:11:43;100455.26;;;25.54;26.06
81162;BME280;70638;-33.792;151.032;2023-09-19T08:14:17;100462.86;;;25.39;26.27
81162;BME280;70638;-33.792;151.032;2023-09-19T08:16:46;100464.15;;;25.16;26.67
81162;BME280;70638;-33.792;151.032;2023-09-19T08:19:16;100468.00;;;24.95;26.63
81162;BME280;70638;-33.792;151.032;2023-09-19T08:21:50;100472.86;;;24.81;27.17
81162;BME280;70638;-33.792;151.032;2023-09-19T08:24:17;100476.73;;;24.71;26.38
81162;BME280;70638;-33.792;151.032;2023-09-19T08:26:53;100481.44;;;24.68;27.07
81162;BME280;70638;-33.792;151.032;2023-09-19T08:29:17;100481.36;;;24.63;26.78
81162;BME280;70638;-33.792;151.032;2023-09-19T08:31:48;100486.46;;;24.50;27.66
81162;BME280;70638;-33.792;151.032;2023-09-19T08:34:18;100487.82;;;24.45;27.84
81162;BME280;70638;-33.792;151.032;2023-09-19T08:36:53;100488.00;;;24.35;28.62
81162;BME280;70638;-33.792;151.032;2023-09-19T08:39:21;100485.26;;;24.20;29.97
81162;BME280;70638;-33.792;151.032;2023-09-19T08:41:51;100485.03;;;24.12;28.92
81162;BME280;70638;-33.792;151.032;2023-09-19T08:44:21;100487.95;;;23.99;29.49
81162;BME280;70638;-33.792;151.032;2023-09-19T08:47:01;100486.59;;;23.89;30.38
81162;BME280;70638;-33.792;151.032;2023-09-19T08:49:36;100485.58;;;23.86;28.80
81162;BME280;70638;-33.792;151.032;2023-09-19T08:52:01;100489.95;;;23.78;29.38
81162;BME280;70638;-33.792;151.032;2023-09-19T08:54:25;100492.33;;;23.67;29.70
81162;BME280;70638;-33.792;151.032;2023-09-19T08:56:54;100499.11;;;23.52;30.71
81162;BME280;70638;-33.792;151.032;2023-09-19T08:59:27;100498.83;;;23.37;30.77
81162;BME280;70638;-33.792;151.032;2023-09-19T09:01:56;100502.57;;;23.24;30.55
81162;BME280;70638;-33.792;151.032;2023-09-19T09:04:25;100502.62;;;23.19;30.63
81162;BME280;70638;-33.792;151.032;2023-09-19T09:06:59;100504.94;;;23.11;30.66
81162;BME280;70638;-33.792;151.032;2023-09-19T09:09:26;100502.98;;;23.13;30.82
81162;BME280;70638;-33.792;151.032;2023-09-19T09:11:59;100505.59;;;23.18;30.61
81162;BME280;70638;-33.792;151.032;2023-09-19T09:14:27;100511.27;;;23.20;31.45
81162;BME280;70638;-33.792;151.032;2023-09-19T09:17:01;100513.80;;;23.21;30.35
81162;BME280;70638;-33.792;151.032;2023-09-19T09:19:28;100515.80;;;23.20;31.27
81162;BME280;70638;-33.792;151.032;2023-09-19T09:22:11;100520.88;;;23.14;30.60
81162;BME280;70638;-33.792;151.032;2023-09-19T09:24:30;100521.89;;;23.12;30.45
81162;BME280;70638;-33.792;151.032;2023-09-19T09:29:41;100527.20;;;23.06;30.86
81162;BME280;70638;-33.792;151.032;2023-09-19T09:32:18;100525.31;;;23.03;32.07
81162;BME280;70638;-33.792;151.032;2023-09-19T09:34:35;100528.91;;;23.00;30.54
81162;BME280;70638;-33.792;151.032;2023-09-19T09:37:03;100534.78;;;22.95;31.34
81162;BME280;70638;-33.792;151.032;2023-09-19T09:39:34;100532.83;;;22.86;30.62
81162;BME280;70638;-33.792;151.032;2023-09-19T09:42:34;100532.50;;;22.85;31.46
81162;BME280;70638;-33.792;151.032;2023-09-19T09:47:43;100526.66;;;22.74;31.08
81162;BME280;70638;-33.792;151.032;2023-09-19T09:49:39;100533.67;;;22.71;31.23
81162;BME280;70638;-33.792;151.032;2023-09-19T09:52:09;100531.44;;;22.58;31.49
81162;BME280;70638;-33.792;151.032;2023-09-19T09:55:02;100531.33;;;22.51;31.18
81162;BME280;70638;-33.792;151.032;2023-09-19T09:57:18;100535.75;;;22.61;31.03
81162;BME280;70638;-33.792;151.032;2023-09-19T09:59:49;100540.05;;;22.60;32.20
81162;BME280;70638;-33.792;151.032;2023-09-19T10:02:14;100535.83;;;22.52;31.52
81162;BME280;70638;-33.792;151.032;2023-09-19T10:04:43;100537.11;;;22.43;31.78
81162;BME280;70638;-33.792;151.032;2023-09-19T10:07:25;100535.30;;;22.43;30.88
81162;BME280;70638;-33.792;151.032;2023-09-19T10:09:45;100534.62;;;22.39;31.22
81162;BME280;70638;-33.792;151.032;2023-09-19T10:12:13;100534.14;;;22.38;31.62
81162;BME280;70638;-33.792;151.032;2023-09-19T10:14:42;100533.33;;;22.52;30.72
81162;BME280;70638;-33.792;151.032;2023-09-19T10:17:14;100531.15;;;22.54;30.44
81162;BME280;70638;-33.792;151.032;2023-09-19T10:19:47;100528.31;;;22.69;29.40
81162;BME280;70638;-33.792;151.032;2023-09-19T10:22:20;100523.53;;;22.84;28.91
81162;BME280;70638;-33.792;151.032;2023-09-19T10:24:44;100521.03;;;22.84;30.33
81162;BME280;70638;-33.792;151.032;2023-09-19T10:27:13;100522.84;;;22.91;28.26
81162;BME280;70638;-33.792;151.032;2023-09-19T10:29:44;100521.92;;;22.95;29.72
81162;BME280;70638;-33.792;151.032;2023-09-19T10:32:14;100525.30;;;22.90;29.93
81162;BME280;70638;-33.792;151.032;2023-09-19T10:34:47;100523.48;;;22.82;29.93
81162;BME280;70638;-33.792;151.032;2023-09-19T10:37:16;100522.17;;;22.84;29.23
81162;BME280;70638;-33.792;151.032;2023-09-19T10:39:46;100525.59;;;22.70;30.78
81162;BME280;70638;-33.792;151.032;2023-09-19T10:42:27;100522.52;;;22.56;30.25
81162;BME280;70638;-33.792;151.032;2023-09-19T10:44:52;100521.56;;;22.38;30.14
81162;BME280;70638;-33.792;151.032;2023-09-19T10:47:17;100519.55;;;22.42;30.50
81162;BME280;70638;-33.792;151.032;2023-09-19T10:49:51;100526.44;;;22.47;30.08
81162;BME280;70638;-33.792;151.032;2023-09-19T10:52:25;100523.33;;;22.49;29.03
81162;BME280;70638;-33.792;151.032;2023-09-19T10:54:51;100523.41;;;22.55;29.02
81162;BME280;70638;-33.792;151.032;2023-09-19T10:57:23;100523.89;;;22.53;30.05
81162;BME280;70638;-33.792;151.032;2023-09-19T11:00:04;100521.66;;;22.47;31.27
81162;BME280;70638;-33.792;151.032;2023-09-19T11:02:25;100523.31;;;22.43;29.40
81162;BME280;70638;-33.792;151.032;2023-09-19T11:04:53;100517.09;;;22.39;30.66
81162;BME280;70638;-33.792;151.032;2023-09-19T11:07:22;100513.75;;;22.18;31.31
81162;BME280;70638;-33.792;151.032;2023-09-19T11:09:56;100514.66;;;22.03;31.41
81162;BME280;70638;-33.792;151.032;2023-09-19T11:14:55;100512.77;;;21.76;32.13
81162;BME280;70638;-33.792;151.032;2023-09-19T11:17:32;100511.42;;;21.67;31.71
81162;BME280;70638;-33.792;151.032;2023-09-19T11:27:31;100513.83;;;21.24;31.85
81162;BME280;70638;-33.792;151.032;2023-09-19T11:30:34;100517.69;;;21.18;32.94
81162;BME280;70638;-33.792;151.032;2023-09-19T11:35:07;100512.97;;;21.13;33.57
81162;BME280;70638;-33.792;151.032;2023-09-19T11:40:09;100515.11;;;21.29;32.52
81162;BME280;70638;-33.792;151.032;2023-09-19T11:42:43;100516.88;;;21.22;32.21
81162;BME280;70638;-33.792;151.032;2023-09-19T11:45:01;100513.76;;;21.28;32.60
81162;BME280;70638;-33.792;151.032;2023-09-19T11:47:32;100515.52;;;21.34;31.97
81162;BME280;70638;-33.792;151.032;2023-09-19T11:50:05;100518.23;;;21.27;32.76
81162;BME280;70638;-33.792;151.032;2023-09-19T11:52:40;100518.91;;;21.24;32.04
81162;BME280;70638;-33.792;151.032;2023-09-19T11:55:05;100518.42;;;21.15;32.24
81162;BME280;70638;-33.792;151.032;2023-09-19T11:57:35;100512.16;;;21.28;31.76
81162;BME280;70638;-33.792;151.032;2023-09-19T12:00:08;100513.61;;;21.27;32.00
81162;BME280;70638;-33.792;151.032;2023-09-19T12:02:47;100506.81;;;21.21;32.84
81162;BME280;70638;-33.792;151.032;2023-09-19T12:05:06;100509.91;;;21.16;32.24
81162;BME280;70638;-33.792;151.032;2023-09-19T12:07:45;100503.77;;;21.12;32.93
81162;BME280;70638;-33.792;151.032;2023-09-19T12:10:08;100501.19;;;21.17;32.10
81162;BME280;70638;-33.792;151.032;2023-09-19T12:12:38;100506.80;;;21.18;31.62
81162;BME280;70638;-33.792;151.032;2023-09-19T12:15:09;100503.30;;;21.25;32.46
81162;BME280;70638;-33.792;151.032;2023-09-19T12:17:39;100503.88;;;21.30;31.29
81162;BME280;70638;-33.792;151.032;2023-09-19T12:20:18;100503.94;;;21.35;31.68
81162;BME280;70638;-33.792;151.032;2023-09-19T12:22:48;100501.70;;;21.45;30.94
81162;BME280;70638;-33.792;151.032;2023-09-19T12:25:14;100495.84;;;21.42;31.71
81162;BME280;70638;-33.792;151.032;2023-09-19T12:27:50;100495.23;;;21.58;30.47
81162;BME280;70638;-33.792;151.032;2023-09-19T12:30:11;100488.58;;;21.71;29.86
81162;BME280;70638;-33.792;151.032;2023-09-19T12:32:44;100484.72;;;21.79;30.35
81162;BME280;70638;-33.792;151.032;2023-09-19T12:35:30;100484.41;;;21.80;31.15
81162;BME280;70638;-33.792;151.032;2023-09-19T12:37:45;100481.95;;;21.75;30.80
81162;BME280;70638;-33.792;151.032;2023-09-19T12:40:24;100484.88;;;21.89;30.40
81162;BME280;70638;-33.792;151.032;2023-09-19T12:42:49;100478.43;;;22.03;30.42
81162;BME280;70638;-33.792;151.032;2023-09-19T12:45:14;100475.72;;;21.92;31.08
81162;BME280;70638;-33.792;151.032;2023-09-19T12:48:23;100471.59;;;21.83;30.17
81162;BME280;70638;-33.792;151.032;2023-09-19T12:50:26;100469.36;;;21.90;31.12
81162;BME280;70638;-33.792;151.032;2023-09-19T12:52:48;100463.81;;;21.99;30.14
81162;BME280;70638;-33.792;151.032;2023-09-19T12:55:24;100462.47;;;21.91;30.64
81162;BME280;70638;-33.792;151.032;2023-09-19T12:57:56;100462.46;;;21.88;30.79
81162;BME280;70638;-33.792;151.032;2023-09-19T13:00:17;100455.80;;;22.01;30.31
81162;BME280;70638;-33.792;151.032;2023-09-19T13:05:19;100453.45;;;22.03;31.25